sensor_id;sensor_type;location;lat;lon;timestamp;P1;durP1;ratioP1;P2;durP2;ratioP2
42200;SDS011;27869;51.442;7.540;2024-03-02T00:01:24;6.65;;;1.73;;
42200;SDS011;27869;51.442;7.540;2024-03-02T00:03:51;8.65;;;1.70;;
42200;SDS011;27869;51.442;7.540;2024-03-02T00:06:19;5.90;;;1.60;;
42200;SDS011;27869;51.442;7.540;2024-03-02T00:11:15;7.80;;;1.77;;
42200;SDS011;27869;51.442;7.540;2024-03-02T00:16:14;5.57;;;1.70;;
42200;SDS011;27869;51.442;7.540;2024-03-02T00:18:43;7.93;;;1.83;;
42200;SDS011;27869;51.442;7.540;2024-03-02T00:21:10;6.28;;;1.65;;
42200;SDS011;27869;51.442;7.540;2024-03-02T00:26:06;6.10;;;1.83;;
42200;SDS011;27869;51.442;7.540;2024-03-02T00:28:38;6.60;;;1.52;;
42200;SDS011;27869;51.442;7.540;2024-03-02T00:31:09;5.60;;;1.55;;
42200;SDS011;27869;51.442;7.540;2024-03-02T00:33:39;4.55;;;1.42;;
42200;SDS011;27869;51.442;7.540;2024-03-02T00:36:08;6.60;;;1.88;;
42200;SDS011;27869;51.442;7.540;2024-03-02T00:38:41;5.45;;;1.60;;
42200;SDS011;27869;51.442;7.540;2024-03-02T00:41:16;5.10;;;1.60;;
42200;SDS011;27869;51.442;7.540;2024-03-02T00:43:49;6.03;;;1.65;;
42200;SDS011;27869;51.442;7.540;2024-03-02T00:46:23;5.78;;;1.70;;
42200;SDS011;27869;51.442;7.540;2024-03-02T00:48:54;5.32;;;1.63;;
42200;SDS011;27869;51.442;7.540;2024-03-02T00:51:22;5.82;;;1.60;;
42200;SDS011;27869;51.442;7.540;2024-03-02T00:53:50;6.00;;;1.70;;
42200;SDS011;27869;51.442;7.540;2024-03-02T00:56:18;5.80;;;1.52;;
42200;SDS011;27869;51.442;7.540;2024-03-02T00:58:45;5.85;;;1.58;;
42200;SDS011;27869;51.442;7.540;2024-03-02T01:01:14;5.90;;;1.77;;
42200;SDS011;27869;51.442;7.540;2024-03-02T01:03:41;7.05;;;1.65;;
42200;SDS011;27869;51.442;7.540;2024-03-02T01:06:08;3.38;;;1.33;;
42200;SDS011;27869;51.442;7.540;2024-03-02T01:08:35;4.63;;;1.27;;
42200;SDS011;27869;51.442;7.540;2024-03-02T01:11:02;5.90;;;1.45;;
42200;SDS011;27869;51.442;7.540;2024-03-02T01:13:30;4.82;;;1.58;;
42200;SDS011;27869;51.442;7.540;2024-03-02T01:15:59;7.38;;;1.80;;
42200;SDS011;27869;51.442;7.540;2024-03-02T01:18:29;4.10;;;1.30;;
42200;SDS011;27869;51.442;7.540;2024-03-02T01:20:56;5.82;;;1.60;;
42200;SDS011;27869;51.442;7.540;2024-03-02T01:23:23;6.03;;;1.50;;
42200;SDS011;27869;51.442;7.540;2024-03-02T01:25:50;6.68;;;1.40;;
42200;SDS011;27869;51.442;7.540;2024-03-02T01:28:17;6.63;;;1.55;;
42200;SDS011;27869;51.442;7.540;2024-03-02T01:30:45;4.20;;;1.42;;
42200;SDS011;27869;51.442;7.540;2024-03-02T01:33:12;7.10;;;1.40;;
42200;SDS011;27869;51.442;7.540;2024-03-02T01:35:41;4.38;;;1.40;;
42200;SDS011;27869;51.442;7.540;2024-03-02T01:38:08;5.38;;;1.55;;
42200;SDS011;27869;51.442;7.540;2024-03-02T01:40:35;5.05;;;1.35;;
42200;SDS011;27869;51.442;7.540;2024-03-02T01:43:03;3.92;;;1.30;;
42200;SDS011;27869;51.442;7.540;2024-03-02T01:45:30;4.70;;;1.30;;
42200;SDS011;27869;51.442;7.540;2024-03-02T01:47:57;4.00;;;1.25;;
42200;SDS011;27869;51.442;7.540;2024-03-02T01:50:25;5.22;;;1.50;;
42200;SDS011;27869;51.442;7.540;2024-03-02T01:52:54;7.85;;;1.50;;
42200;SDS011;27869;51.442;7.540;2024-03-02T01:55:22;7.90;;;1.52;;
42200;SDS011;27869;51.442;7.540;2024-03-02T01:57:49;5.35;;;1.25;;
42200;SDS011;27869;51.442;7.540;2024-03-02T02:00:17;5.30;;;1.50;;
42200;SDS011;27869;51.442;7.540;2024-03-02T02:02:45;7.15;;;1.20;;
42200;SDS011;27869;51.442;7.540;2024-03-02T02:05:14;7.35;;;1.42;;
42200;SDS011;27869;51.442;7.540;2024-03-02T02:07:41;4.10;;;1.48;;
42200;SDS011;27869;51.442;7.540;2024-03-02T02:10:09;5.10;;;1.40;;
42200;SDS011;27869;51.442;7.540;2024-03-02T02:12:37;4.95;;;1.40;;
42200;SDS011;27869;51.442;7.540;2024-03-02T02:15:04;6.55;;;1.45;;
42200;SDS011;27869;51.442;7.540;2024-03-02T02:17:46;4.03;;;1.00;;
42200;SDS011;27869;51.442;7.540;2024-03-02T02:20:13;6.00;;;1.35;;
42200;SDS011;27869;51.442;7.540;2024-03-02T02:22:41;4.53;;;1.20;;
42200;SDS011;27869;51.442;7.540;2024-03-02T02:25:20;5.68;;;1.27;;
42200;SDS011;27869;51.442;7.540;2024-03-02T02:27:47;3.88;;;1.30;;
42200;SDS011;27869;51.442;7.540;2024-03-02T02:30:14;5.72;;;1.30;;
42200;SDS011;27869;51.442;7.540;2024-03-02T02:32:45;5.45;;;1.30;;
42200;SDS011;27869;51.442;7.540;2024-03-02T02:35:12;3.08;;;1.20;;
42200;SDS011;27869;51.442;7.540;2024-03-02T02:37:39;5.10;;;1.20;;
42200;SDS011;27869;51.442;7.540;2024-03-02T02:40:08;4.93;;;1.45;;
42200;SDS011;27869;51.442;7.540;2024-03-02T02:42:36;3.83;;;1.20;;
42200;SDS011;27869;51.442;7.540;2024-03-02T02:45:03;4.85;;;1.25;;
42200;SDS011;27869;51.442;7.540;2024-03-02T02:47:30;2.88;;;1.05;;
42200;SDS011;27869;51.442;7.540;2024-03-02T02:50:00;7.38;;;1.20;;
42200;SDS011;27869;51.442;7.540;2024-03-02T02:52:30;6.53;;;1.50;;
42200;SDS011;27869;51.442;7.540;2024-03-02T02:54:58;3.25;;;1.25;;
42200;SDS011;27869;51.442;7.540;2024-03-02T02:57:26;4.18;;;1.17;;
42200;SDS011;27869;51.442;7.540;2024-03-02T02:59:55;5.15;;;1.10;;
42200;SDS011;27869;51.442;7.540;2024-03-02T03:02:22;4.70;;;1.20;;
42200;SDS011;27869;51.442;7.540;2024-03-02T03:04:49;4.75;;;1.20;;
42200;SDS011;27869;51.442;7.540;2024-03-02T03:07:16;3.72;;;1.10;;
42200;SDS011;27869;51.442;7.540;2024-03-02T03:09:42;5.40;;;1.30;;
42200;SDS011;27869;51.442;7.540;2024-03-02T03:12:09;3.85;;;1.27;;
42200;SDS011;27869;51.442;7.540;2024-03-02T03:14:37;2.53;;;1.10;;
42200;SDS011;27869;51.442;7.540;2024-03-02T03:17:07;4.07;;;1.33;;
42200;SDS011;27869;51.442;7.540;2024-03-02T03:19:34;5.00;;;1.27;;
42200;SDS011;27869;51.442;7.540;2024-03-02T03:22:01;4.13;;;1.20;;
42200;SDS011;27869;51.442;7.540;2024-03-02T03:24:28;3.47;;;1.20;;
42200;SDS011;27869;51.442;7.540;2024-03-02T03:26:55;5.75;;;1.23;;
42200;SDS011;27869;51.442;7.540;2024-03-02T03:29:22;3.97;;;1.30;;
42200;SDS011;27869;51.442;7.540;2024-03-02T03:31:50;4.43;;;1.23;;
42200;SDS011;27869;51.442;7.540;2024-03-02T03:34:17;3.47;;;1.10;;
42200;SDS011;27869;51.442;7.540;2024-03-02T03:36:44;5.38;;;1.20;;
42200;SDS011;27869;51.442;7.540;2024-03-02T03:39:11;5.82;;;1.23;;
42200;SDS011;27869;51.442;7.540;2024-03-02T03:41:38;3.33;;;1.10;;
42200;SDS011;27869;51.442;7.540;2024-03-02T03:44:06;4.57;;;1.30;;
42200;SDS011;27869;51.442;7.540;2024-03-02T03:46:33;7.13;;;1.35;;
42200;SDS011;27869;51.442;7.540;2024-03-02T03:49:01;6.75;;;1.40;;
42200;SDS011;27869;51.442;7.540;2024-03-02T03:51:29;7.43;;;1.52;;
42200;SDS011;27869;51.442;7.540;2024-03-02T03:53:56;3.97;;;1.10;;
42200;SDS011;27869;51.442;7.540;2024-03-02T03:56:23;7.00;;;1.40;;
42200;SDS011;27869;51.442;7.540;2024-03-02T03:58:50;7.00;;;1.50;;
42200;SDS011;27869;51.442;7.540;2024-03-02T04:01:17;6.85;;;1.42;;
42200;SDS011;27869;51.442;7.540;2024-03-02T04:03:44;5.18;;;1.27;;
42200;SDS011;27869;51.442;7.540;2024-03-02T04:06:12;6.00;;;1.38;;
42200;SDS011;27869;51.442;7.540;2024-03-02T04:08:41;7.03;;;1.60;;
42200;SDS011;27869;51.442;7.540;2024-03-02T04:11:08;5.45;;;1.42;;
42200;SDS011;27869;51.442;7.540;2024-03-02T04:13:35;5.25;;;1.67;;
42200;SDS011;27869;51.442;7.540;2024-03-02T04:16:02;6.10;;;1.48;;
42200;SDS011;27869;51.442;7.540;2024-03-02T04:18:30;7.28;;;1.67;;
42200;SDS011;27869;51.442;7.540;2024-03-02T04:20:57;5.43;;;1.40;;
42200;SDS011;27869;51.442;7.540;2024-03-02T04:23:25;5.15;;;1.27;;
42200;SDS011;27869;51.442;7.540;2024-03-02T04:25:52;4.35;;;1.40;;
42200;SDS011;27869;51.442;7.540;2024-03-02T04:28:19;6.22;;;1.40;;
42200;SDS011;27869;51.442;7.540;2024-03-02T04:30:46;6.68;;;1.38;;
42200;SDS011;27869;51.442;7.540;2024-03-02T04:33:13;6.88;;;1.63;;
42200;SDS011;27869;51.442;7.540;2024-03-02T04:35:39;5.95;;;1.27;;
42200;SDS011;27869;51.442;7.540;2024-03-02T04:38:07;5.05;;;1.50;;
42200;SDS011;27869;51.442;7.540;2024-03-02T04:40:35;6.47;;;1.40;;
42200;SDS011;27869;51.442;7.540;2024-03-02T04:43:02;7.20;;;1.70;;
42200;SDS011;27869;51.442;7.540;2024-03-02T04:45:29;5.68;;;1.50;;
42200;SDS011;27869;51.442;7.540;2024-03-02T04:47:56;4.60;;;1.33;;
42200;SDS011;27869;51.442;7.540;2024-03-02T04:50:22;6.63;;;1.50;;
42200;SDS011;27869;51.442;7.540;2024-03-02T04:52:49;7.10;;;1.65;;
42200;SDS011;27869;51.442;7.540;2024-03-02T04:55:16;6.15;;;1.60;;
42200;SDS011;27869;51.442;7.540;2024-03-02T04:57:55;6.75;;;1.50;;
42200;SDS011;27869;51.442;7.540;2024-03-02T05:00:22;5.05;;;1.52;;
42200;SDS011;27869;51.442;7.540;2024-03-02T05:02:49;5.78;;;1.45;;
42200;SDS011;27869;51.442;7.540;2024-03-02T05:05:16;5.50;;;1.70;;
42200;SDS011;27869;51.442;7.540;2024-03-02T05:07:43;5.85;;;1.60;;
42200;SDS011;27869;51.442;7.540;2024-03-02T05:10:10;7.82;;;1.70;;
42200;SDS011;27869;51.442;7.540;2024-03-02T05:12:37;11.70;;;1.80;;
42200;SDS011;27869;51.442;7.540;2024-03-02T05:15:23;6.88;;;1.50;;
42200;SDS011;27869;51.442;7.540;2024-03-02T05:17:49;5.78;;;1.55;;
42200;SDS011;27869;51.442;7.540;2024-03-02T05:20:16;5.72;;;1.70;;
42200;SDS011;27869;51.442;7.540;2024-03-02T05:22:43;6.88;;;1.75;;
42200;SDS011;27869;51.442;7.540;2024-03-02T05:25:10;6.03;;;1.65;;
42200;SDS011;27869;51.442;7.540;2024-03-02T05:27:36;6.55;;;1.60;;
42200;SDS011;27869;51.442;7.540;2024-03-02T05:30:04;6.00;;;1.60;;
42200;SDS011;27869;51.442;7.540;2024-03-02T05:32:33;6.22;;;1.67;;
42200;SDS011;27869;51.442;7.540;2024-03-02T05:35:00;7.25;;;1.85;;
42200;SDS011;27869;51.442;7.540;2024-03-02T05:37:28;6.18;;;2.00;;
42200;SDS011;27869;51.442;7.540;2024-03-02T05:39:54;5.95;;;1.58;;
42200;SDS011;27869;51.442;7.540;2024-03-02T05:42:21;6.15;;;1.63;;
42200;SDS011;27869;51.442;7.540;2024-03-02T05:44:48;6.57;;;1.60;;
42200;SDS011;27869;51.442;7.540;2024-03-02T05:47:15;6.30;;;1.55;;
42200;SDS011;27869;51.442;7.540;2024-03-02T05:49:43;8.07;;;1.90;;
42200;SDS011;27869;51.442;7.540;2024-03-02T05:52:10;7.57;;;2.05;;
42200;SDS011;27869;51.442;7.540;2024-03-02T05:54:37;6.78;;;1.98;;
42200;SDS011;27869;51.442;7.540;2024-03-02T05:57:04;6.63;;;1.80;;
42200;SDS011;27869;51.442;7.540;2024-03-02T05:59:51;6.45;;;1.80;;
42200;SDS011;27869;51.442;7.540;2024-03-02T06:02:18;8.63;;;1.85;;
42200;SDS011;27869;51.442;7.540;2024-03-02T06:04:47;7.32;;;2.38;;
42200;SDS011;27869;51.442;7.540;2024-03-02T06:07:13;8.75;;;2.00;;
42200;SDS011;27869;51.442;7.540;2024-03-02T06:09:40;7.28;;;2.08;;
42200;SDS011;27869;51.442;7.540;2024-03-02T06:12:07;11.10;;;3.13;;
42200;SDS011;27869;51.442;7.540;2024-03-02T06:14:34;6.65;;;1.88;;
42200;SDS011;27869;51.442;7.540;2024-03-02T06:17:01;9.30;;;2.67;;
42200;SDS011;27869;51.442;7.540;2024-03-02T06:19:28;8.18;;;1.90;;
42200;SDS011;27869;51.442;7.540;2024-03-02T06:21:56;9.30;;;2.53;;
42200;SDS011;27869;51.442;7.540;2024-03-02T06:24:23;7.80;;;2.10;;
42200;SDS011;27869;51.442;7.540;2024-03-02T06:26:51;8.48;;;2.20;;
42200;SDS011;27869;51.442;7.540;2024-03-02T06:29:18;8.85;;;2.03;;
42200;SDS011;27869;51.442;7.540;2024-03-02T06:31:45;7.72;;;1.90;;
42200;SDS011;27869;51.442;7.540;2024-03-02T06:34:11;8.00;;;2.03;;
42200;SDS011;27869;51.442;7.540;2024-03-02T06:36:38;8.57;;;2.00;;
42200;SDS011;27869;51.442;7.540;2024-03-02T06:39:09;6.97;;;1.70;;
42200;SDS011;27869;51.442;7.540;2024-03-02T06:41:37;7.22;;;2.05;;
42200;SDS011;27869;51.442;7.540;2024-03-02T06:44:04;8.25;;;2.00;;
42200;SDS011;27869;51.442;7.540;2024-03-02T06:46:31;8.15;;;1.80;;
42200;SDS011;27869;51.442;7.540;2024-03-02T06:48:58;8.45;;;2.28;;
42200;SDS011;27869;51.442;7.540;2024-03-02T06:51:27;7.75;;;2.20;;
42200;SDS011;27869;51.442;7.540;2024-03-02T06:53:54;7.38;;;1.83;;
42200;SDS011;27869;51.442;7.540;2024-03-02T06:56:22;9.15;;;2.33;;
42200;SDS011;27869;51.442;7.540;2024-03-02T06:58:49;6.55;;;2.00;;
42200;SDS011;27869;51.442;7.540;2024-03-02T07:01:17;7.07;;;2.03;;
42200;SDS011;27869;51.442;7.540;2024-03-02T07:03:45;7.63;;;1.98;;
42200;SDS011;27869;51.442;7.540;2024-03-02T07:06:12;8.77;;;2.17;;
42200;SDS011;27869;51.442;7.540;2024-03-02T07:08:39;8.32;;;1.95;;
42200;SDS011;27869;51.442;7.540;2024-03-02T07:11:06;8.60;;;2.10;;
42200;SDS011;27869;51.442;7.540;2024-03-02T07:13:34;9.23;;;2.00;;
42200;SDS011;27869;51.442;7.540;2024-03-02T07:16:01;8.02;;;2.25;;
42200;SDS011;27869;51.442;7.540;2024-03-02T07:18:46;7.78;;;1.90;;
42200;SDS011;27869;51.442;7.540;2024-03-02T07:21:19;8.88;;;2.42;;
42200;SDS011;27869;51.442;7.540;2024-03-02T07:23:47;8.65;;;1.88;;
42200;SDS011;27869;51.442;7.540;2024-03-02T07:26:14;7.95;;;2.17;;
42200;SDS011;27869;51.442;7.540;2024-03-02T07:28:46;8.90;;;2.00;;
42200;SDS011;27869;51.442;7.540;2024-03-02T07:31:14;8.52;;;2.13;;
42200;SDS011;27869;51.442;7.540;2024-03-02T07:33:41;8.85;;;1.60;;
42200;SDS011;27869;51.442;7.540;2024-03-02T07:36:10;10.77;;;2.00;;
42200;SDS011;27869;51.442;7.540;2024-03-02T07:38:37;8.30;;;2.20;;
42200;SDS011;27869;51.442;7.540;2024-03-02T07:41:05;6.90;;;2.00;;
42200;SDS011;27869;51.442;7.540;2024-03-02T07:43:32;6.80;;;1.88;;
42200;SDS011;27869;51.442;7.540;2024-03-02T07:46:01;8.63;;;1.88;;
42200;SDS011;27869;51.442;7.540;2024-03-02T07:48:28;8.32;;;1.88;;
42200;SDS011;27869;51.442;7.540;2024-03-02T07:50:55;7.35;;;1.75;;
42200;SDS011;27869;51.442;7.540;2024-03-02T07:53:22;6.47;;;1.70;;
42200;SDS011;27869;51.442;7.540;2024-03-02T07:55:49;5.13;;;1.60;;
42200;SDS011;27869;51.442;7.540;2024-03-02T07:58:16;8.38;;;1.80;;
42200;SDS011;27869;51.442;7.540;2024-03-02T08:00:44;6.90;;;1.83;;
42200;SDS011;27869;51.442;7.540;2024-03-02T08:03:13;5.97;;;1.90;;
42200;SDS011;27869;51.442;7.540;2024-03-02T08:05:40;8.45;;;2.20;;
42200;SDS011;27869;51.442;7.540;2024-03-02T08:08:07;9.32;;;2.55;;
42200;SDS011;27869;51.442;7.540;2024-03-02T08:10:34;8.43;;;2.15;;
42200;SDS011;27869;51.442;7.540;2024-03-02T08:13:01;6.53;;;1.88;;
42200;SDS011;27869;51.442;7.540;2024-03-02T08:15:28;9.10;;;2.15;;
42200;SDS011;27869;51.442;7.540;2024-03-02T08:17:54;8.05;;;1.83;;
42200;SDS011;27869;51.442;7.540;2024-03-02T08:20:24;7.95;;;2.17;;
42200;SDS011;27869;51.442;7.540;2024-03-02T08:22:50;8.38;;;2.03;;
42200;SDS011;27869;51.442;7.540;2024-03-02T08:25:20;7.75;;;2.25;;
42200;SDS011;27869;51.442;7.540;2024-03-02T08:27:47;8.07;;;2.05;;
42200;SDS011;27869;51.442;7.540;2024-03-02T08:30:14;8.80;;;2.20;;
42200;SDS011;27869;51.442;7.540;2024-03-02T08:32:41;7.38;;;1.92;;
42200;SDS011;27869;51.442;7.540;2024-03-02T08:35:08;7.15;;;2.10;;
42200;SDS011;27869;51.442;7.540;2024-03-02T08:37:37;7.68;;;2.15;;
42200;SDS011;27869;51.442;7.540;2024-03-02T08:40:06;7.65;;;1.90;;
42200;SDS011;27869;51.442;7.540;2024-03-02T08:42:34;8.05;;;2.10;;
42200;SDS011;27869;51.442;7.540;2024-03-02T08:45:01;9.18;;;2.05;;
42200;SDS011;27869;51.442;7.540;2024-03-02T08:47:28;9.18;;;2.00;;
42200;SDS011;27869;51.442;7.540;2024-03-02T08:49:55;8.15;;;1.73;;
42200;SDS011;27869;51.442;7.540;2024-03-02T08:52:22;7.10;;;2.17;;
42200;SDS011;27869;51.442;7.540;2024-03-02T08:54:50;7.63;;;1.83;;
42200;SDS011;27869;51.442;7.540;2024-03-02T08:57:17;7.55;;;1.80;;
42200;SDS011;27869;51.442;7.540;2024-03-02T08:59:44;6.32;;;2.00;;
42200;SDS011;27869;51.442;7.540;2024-03-02T09:02:11;8.38;;;1.88;;
42200;SDS011;27869;51.442;7.540;2024-03-02T09:04:38;9.75;;;2.00;;
42200;SDS011;27869;51.442;7.540;2024-03-02T09:07:05;7.25;;;1.90;;
42200;SDS011;27869;51.442;7.540;2024-03-02T09:09:32;7.00;;;1.75;;
42200;SDS011;27869;51.442;7.540;2024-03-02T09:12:01;8.20;;;2.33;;
42200;SDS011;27869;51.442;7.540;2024-03-02T09:14:28;6.90;;;1.73;;
42200;SDS011;27869;51.442;7.540;2024-03-02T09:16:55;4.93;;;1.70;;
42200;SDS011;27869;51.442;7.540;2024-03-02T09:19:21;7.50;;;1.70;;
42200;SDS011;27869;51.442;7.540;2024-03-02T09:21:48;6.80;;;1.50;;
42200;SDS011;27869;51.442;7.540;2024-03-02T09:24:16;7.70;;;1.60;;
42200;SDS011;27869;51.442;7.540;2024-03-02T09:26:42;5.63;;;1.70;;
42200;SDS011;27869;51.442;7.540;2024-03-02T09:29:11;5.57;;;1.60;;
42200;SDS011;27869;51.442;7.540;2024-03-02T09:31:39;7.38;;;1.50;;
42200;SDS011;27869;51.442;7.540;2024-03-02T09:34:06;7.63;;;1.60;;
42200;SDS011;27869;51.442;7.540;2024-03-02T09:36:33;5.57;;;1.42;;
42200;SDS011;27869;51.442;7.540;2024-03-02T09:39:00;5.15;;;1.42;;
42200;SDS011;27869;51.442;7.540;2024-03-02T09:41:28;5.13;;;1.58;;
42200;SDS011;27869;51.442;7.540;2024-03-02T09:43:55;5.05;;;1.50;;
42200;SDS011;27869;51.442;7.540;2024-03-02T09:46:25;4.10;;;1.38;;
42200;SDS011;27869;51.442;7.540;2024-03-02T09:48:52;6.10;;;1.30;;
42200;SDS011;27869;51.442;7.540;2024-03-02T09:51:19;4.55;;;1.23;;
42200;SDS011;27869;51.442;7.540;2024-03-02T09:53:47;4.75;;;1.30;;
42200;SDS011;27869;51.442;7.540;2024-03-02T09:56:14;4.30;;;1.20;;
42200;SDS011;27869;51.442;7.540;2024-03-02T09:58:43;4.03;;;1.23;;
42200;SDS011;27869;51.442;7.540;2024-03-02T10:01:10;2.47;;;1.02;;
42200;SDS011;27869;51.442;7.540;2024-03-02T10:03:38;6.20;;;1.20;;
42200;SDS011;27869;51.442;7.540;2024-03-02T10:06:18;5.57;;;1.17;;
42200;SDS011;27869;51.442;7.540;2024-03-02T10:08:45;4.43;;;1.13;;
42200;SDS011;27869;51.442;7.540;2024-03-02T10:11:21;2.47;;;1.00;;
42200;SDS011;27869;51.442;7.540;2024-03-02T10:14:03;3.28;;;1.00;;
42200;SDS011;27869;51.442;7.540;2024-03-02T10:16:33;4.68;;;1.00;;
42200;SDS011;27869;51.442;7.540;2024-03-02T10:19:12;3.63;;;0.80;;
42200;SDS011;27869;51.442;7.540;2024-03-02T10:21:42;4.05;;;1.20;;
42200;SDS011;27869;51.442;7.540;2024-03-02T10:24:09;2.70;;;0.80;;
42200;SDS011;27869;51.442;7.540;2024-03-02T10:26:37;3.50;;;0.95;;
42200;SDS011;27869;51.442;7.540;2024-03-02T10:29:04;5.75;;;1.02;;
42200;SDS011;27869;51.442;7.540;2024-03-02T10:31:31;3.38;;;1.00;;
42200;SDS011;27869;51.442;7.540;2024-03-02T10:33:59;4.43;;;1.25;;
42200;SDS011;27869;51.442;7.540;2024-03-02T10:36:28;11.75;;;3.78;;
42200;SDS011;27869;51.442;7.540;2024-03-02T10:38:56;3.45;;;1.05;;
42200;SDS011;27869;51.442;7.540;2024-03-02T10:41:24;6.22;;;1.75;;
42200;SDS011;27869;51.442;7.540;2024-03-02T10:43:53;4.78;;;1.27;;
42200;SDS011;27869;51.442;7.540;2024-03-02T10:46:24;4.07;;;1.13;;
42200;SDS011;27869;51.442;7.540;2024-03-02T10:48:54;4.70;;;1.23;;
42200;SDS011;27869;51.442;7.540;2024-03-02T10:51:23;3.63;;;1.23;;
42200;SDS011;27869;51.442;7.540;2024-03-02T10:53:52;3.55;;;1.20;;
42200;SDS011;27869;51.442;7.540;2024-03-02T10:56:21;3.58;;;1.00;;
42200;SDS011;27869;51.442;7.540;2024-03-02T10:58:54;3.22;;;1.10;;
42200;SDS011;27869;51.442;7.540;2024-03-02T11:01:28;4.43;;;1.10;;
42200;SDS011;27869;51.442;7.540;2024-03-02T11:03:56;3.20;;;1.10;;
42200;SDS011;27869;51.442;7.540;2024-03-02T11:06:24;6.30;;;1.42;;
42200;SDS011;27869;51.442;7.540;2024-03-02T11:08:55;3.42;;;0.95;;
42200;SDS011;27869;51.442;7.540;2024-03-02T11:11:29;2.30;;;0.98;;
42200;SDS011;27869;51.442;7.540;2024-03-02T11:14:00;3.40;;;1.23;;
42200;SDS011;27869;51.442;7.540;2024-03-02T11:16:33;2.72;;;0.85;;
42200;SDS011;27869;51.442;7.540;2024-03-02T11:19:01;4.35;;;1.17;;
42200;SDS011;27869;51.442;7.540;2024-03-02T11:21:31;5.88;;;1.25;;
42200;SDS011;27869;51.442;7.540;2024-03-02T11:24:09;2.88;;;1.13;;
42200;SDS011;27869;51.442;7.540;2024-03-02T11:26:58;4.95;;;1.55;;
42200;SDS011;27869;51.442;7.540;2024-03-02T11:29:43;4.88;;;1.05;;
42200;SDS011;27869;51.442;7.540;2024-03-02T11:32:15;4.05;;;1.00;;
42200;SDS011;27869;51.442;7.540;2024-03-02T11:34:43;2.97;;;1.00;;
42200;SDS011;27869;51.442;7.540;2024-03-02T11:37:12;3.83;;;1.02;;
42200;SDS011;27869;51.442;7.540;2024-03-02T11:39:41;4.05;;;1.00;;
42200;SDS011;27869;51.442;7.540;2024-03-02T11:42:09;3.30;;;0.95;;
42200;SDS011;27869;51.442;7.540;2024-03-02T11:44:39;1.90;;;0.73;;
42200;SDS011;27869;51.442;7.540;2024-03-02T11:47:08;1.83;;;0.88;;
42200;SDS011;27869;51.442;7.540;2024-03-02T11:49:39;2.22;;;0.80;;
42200;SDS011;27869;51.442;7.540;2024-03-02T11:52:07;2.97;;;0.90;;
42200;SDS011;27869;51.442;7.540;2024-03-02T11:54:36;3.08;;;0.70;;
42200;SDS011;27869;51.442;7.540;2024-03-02T11:57:07;3.80;;;1.30;;
42200;SDS011;27869;51.442;7.540;2024-03-02T11:59:34;2.80;;;1.23;;
42200;SDS011;27869;51.442;7.540;2024-03-02T12:02:01;3.08;;;0.90;;
42200;SDS011;27869;51.442;7.540;2024-03-02T12:04:29;6.88;;;1.85;;
42200;SDS011;27869;51.442;7.540;2024-03-02T12:06:57;3.03;;;0.80;;
42200;SDS011;27869;51.442;7.540;2024-03-02T12:09:28;2.80;;;1.00;;
42200;SDS011;27869;51.442;7.540;2024-03-02T12:12:05;2.50;;;0.85;;
42200;SDS011;27869;51.442;7.540;2024-03-02T12:14:35;2.28;;;0.70;;
42200;SDS011;27869;51.442;7.540;2024-03-02T12:17:03;3.22;;;0.70;;
42200;SDS011;27869;51.442;7.540;2024-03-02T12:19:31;4.25;;;1.10;;
42200;SDS011;27869;51.442;7.540;2024-03-02T12:21:59;2.65;;;1.02;;
42200;SDS011;27869;51.442;7.540;2024-03-02T12:24:26;3.35;;;1.25;;
42200;SDS011;27869;51.442;7.540;2024-03-02T12:26:54;2.33;;;1.00;;
42200;SDS011;27869;51.442;7.540;2024-03-02T12:29:23;2.50;;;1.00;;
42200;SDS011;27869;51.442;7.540;2024-03-02T12:31:51;3.28;;;0.90;;
42200;SDS011;27869;51.442;7.540;2024-03-02T12:34:18;2.45;;;0.73;;
42200;SDS011;27869;51.442;7.540;2024-03-02T12:36:45;3.05;;;0.82;;
42200;SDS011;27869;51.442;7.540;2024-03-02T12:41:41;6.28;;;1.08;;
42200;SDS011;27869;51.442;7.540;2024-03-02T12:44:08;3.28;;;1.00;;
42200;SDS011;27869;51.442;7.540;2024-03-02T12:46:37;3.50;;;1.10;;
42200;SDS011;27869;51.442;7.540;2024-03-02T12:49:07;3.03;;;1.00;;
42200;SDS011;27869;51.442;7.540;2024-03-02T12:51:36;2.08;;;1.00;;
42200;SDS011;27869;51.442;7.540;2024-03-02T12:54:05;2.70;;;1.02;;
42200;SDS011;27869;51.442;7.540;2024-03-02T12:56:32;4.05;;;0.90;;
42200;SDS011;27869;51.442;7.540;2024-03-02T12:58:59;2.47;;;1.00;;
42200;SDS011;27869;51.442;7.540;2024-03-02T13:01:26;3.38;;;1.10;;
42200;SDS011;27869;51.442;7.540;2024-03-02T13:03:55;2.65;;;0.85;;
42200;SDS011;27869;51.442;7.540;2024-03-02T13:06:22;2.00;;;0.70;;
42200;SDS011;27869;51.442;7.540;2024-03-02T13:08:49;1.88;;;0.70;;
42200;SDS011;27869;51.442;7.540;2024-03-02T13:11:16;3.10;;;1.02;;
42200;SDS011;27869;51.442;7.540;2024-03-02T13:13:44;2.47;;;0.82;;
42200;SDS011;27869;51.442;7.540;2024-03-02T13:16:12;2.30;;;0.80;;
42200;SDS011;27869;51.442;7.540;2024-03-02T13:21:09;1.20;;;0.70;;
42200;SDS011;27869;51.442;7.540;2024-03-02T13:23:36;2.30;;;0.80;;
42200;SDS011;27869;51.442;7.540;2024-03-02T13:26:04;2.42;;;0.70;;
42200;SDS011;27869;51.442;7.540;2024-03-02T13:28:32;1.67;;;0.70;;
42200;SDS011;27869;51.442;7.540;2024-03-02T13:30:59;4.05;;;0.70;;
42200;SDS011;27869;51.442;7.540;2024-03-02T13:33:26;2.70;;;0.80;;
42200;SDS011;27869;51.442;7.540;2024-03-02T13:35:55;1.92;;;0.73;;
42200;SDS011;27869;51.442;7.540;2024-03-02T13:38:23;2.65;;;0.77;;
42200;SDS011;27869;51.442;7.540;2024-03-02T13:40:50;4.10;;;0.93;;
42200;SDS011;27869;51.442;7.540;2024-03-02T13:43:17;2.33;;;0.77;;
42200;SDS011;27869;51.442;7.540;2024-03-02T13:45:44;2.65;;;0.75;;
42200;SDS011;27869;51.442;7.540;2024-03-02T13:48:12;2.38;;;0.80;;
42200;SDS011;27869;51.442;7.540;2024-03-02T13:50:40;3.78;;;0.77;;
42200;SDS011;27869;51.442;7.540;2024-03-02T13:53:07;0.77;;;0.65;;
42200;SDS011;27869;51.442;7.540;2024-03-02T13:55:36;2.03;;;0.50;;
42200;SDS011;27869;51.442;7.540;2024-03-02T13:58:04;3.38;;;0.70;;
42200;SDS011;27869;51.442;7.540;2024-03-02T14:00:31;1.30;;;0.60;;
42200;SDS011;27869;51.442;7.540;2024-03-02T14:02:58;1.98;;;0.60;;
42200;SDS011;27869;51.442;7.540;2024-03-02T14:05:25;1.30;;;0.50;;
42200;SDS011;27869;51.442;7.540;2024-03-02T14:07:52;2.45;;;0.90;;
42200;SDS011;27869;51.442;7.540;2024-03-02T14:10:19;3.90;;;0.82;;
42200;SDS011;27869;51.442;7.540;2024-03-02T14:12:49;2.85;;;0.80;;
42200;SDS011;27869;51.442;7.540;2024-03-02T14:15:16;4.55;;;1.10;;
42200;SDS011;27869;51.442;7.540;2024-03-02T14:17:42;3.05;;;0.90;;
42200;SDS011;27869;51.442;7.540;2024-03-02T14:20:10;4.03;;;1.20;;
42200;SDS011;27869;51.442;7.540;2024-03-02T14:22:38;4.72;;;1.10;;
42200;SDS011;27869;51.442;7.540;2024-03-02T14:25:05;5.85;;;1.10;;
42200;SDS011;27869;51.442;7.540;2024-03-02T14:27:33;3.15;;;1.17;;
42200;SDS011;27869;51.442;7.540;2024-03-02T14:30:02;2.85;;;1.10;;
42200;SDS011;27869;51.442;7.540;2024-03-02T14:32:30;4.63;;;1.38;;
42200;SDS011;27869;51.442;7.540;2024-03-02T14:34:57;3.30;;;1.02;;
42200;SDS011;27869;51.442;7.540;2024-03-02T14:37:24;3.17;;;1.20;;
42200;SDS011;27869;51.442;7.540;2024-03-02T14:39:51;3.58;;;1.38;;
42200;SDS011;27869;51.442;7.540;2024-03-02T14:42:18;4.80;;;1.48;;
42200;SDS011;27869;51.442;7.540;2024-03-02T14:44:44;6.05;;;1.50;;
42200;SDS011;27869;51.442;7.540;2024-03-02T14:47:13;5.53;;;1.52;;
42200;SDS011;27869;51.442;7.540;2024-03-02T14:49:40;3.30;;;1.30;;
42200;SDS011;27869;51.442;7.540;2024-03-02T14:52:09;4.20;;;1.30;;
42200;SDS011;27869;51.442;7.540;2024-03-02T14:54:36;5.10;;;1.27;;
42200;SDS011;27869;51.442;7.540;2024-03-02T14:57:03;4.60;;;1.42;;
42200;SDS011;27869;51.442;7.540;2024-03-02T14:59:30;4.80;;;1.30;;
42200;SDS011;27869;51.442;7.540;2024-03-02T15:01:57;4.13;;;1.30;;
42200;SDS011;27869;51.442;7.540;2024-03-02T15:04:26;4.85;;;1.30;;
42200;SDS011;27869;51.442;7.540;2024-03-02T15:06:53;5.43;;;1.30;;